Time;durP1;ratioP1;P1;durP2;ratioP2;P2;SDS_P1;SDS_P2;PMS_P1;PMS_P2;Temp;Humidity;BMP_temperature;BMP_pressure;BME280_temperature;BME280_humidity;BME280_pressure;Samples;Min_cycle;Max_cycle;Signal;HPM_P1;HPM_P2
2023/08/23 00:01:12;;;;;;;8.65;7.00;;;28.20;74.20;;;;;;5053797;28;20473;-73
2023/08/23 00:03:38;;;;;;;12.25;7.60;;;28.20;74.50;;;;;;5053682;28;20029;-72
2023/08/23 00:06:04;;;;;;;8.68;7.30;;;28.20;75.50;;;;;;5053793;28;20031;-73
2023/08/23 00:08:30;;;;;;;12.35;8.10;;;28.20;76.90;;;;;;5053542;28;20016;-72
2023/08/23 00:10:56;;;;;;;15.00;7.60;;;28.10;77.50;;;;;;5053711;28;20052;-73
2023/08/23 00:13:22;;;;;;;10.00;8.73;;;28.10;77.70;;;;;;5053732;28;20071;-73
2023/08/23 00:15:49;;;;;;;9.32;8.30;;;28.10;77.90;;;;;;5052160;28;20043;-73
2023/08/23 00:18:15;;;;;;;14.23;9.07;;;28.10;78.60;;;;;;5053570;28;20071;-72
2023/08/23 00:20:41;;;;;;;9.70;8.52;;;28.00;78.30;;;;;;5053663;28;20032;-73
2023/08/23 00:23:06;;;;;;;11.02;8.27;;;27.90;78.60;;;;;;5053491;28;20099;-73
2023/08/23 00:25:32;;;;;;;13.40;8.43;;;27.90;78.60;;;;;;5053458;28;20468;-73
2023/08/23 00:27:58;;;;;;;11.13;8.35;;;27.90;78.60;;;;;;5051302;28;20552;-73
2023/08/23 00:30:23;;;;;;;11.07;8.27;;;27.90;78.50;;;;;;5052934;28;20096;-73
2023/08/23 00:32:49;;;;;;;14.45;8.55;;;27.90;78.40;;;;;;5053476;28;20013;-73
2023/08/23 00:35:15;;;;;;;10.32;8.63;;;27.90;78.80;;;;;;5052960;28;20105;-73
2023/08/23 00:37:41;;;;;;;9.82;8.45;;;27.90;79.40;;;;;;5049645;28;20063;-73
2023/08/23 00:40:10;;;;;;;14.18;8.10;;;27.90;79.80;;;;;;5050317;28;20032;-73
2023/08/23 00:42:36;;;;;;;12.98;8.02;;;27.90;79.50;;;;;;5052595;28;20029;-72
2023/08/23 00:45:02;;;;;;;9.73;8.13;;;27.90;80.10;;;;;;5053001;28;20021;-73
2023/08/23 00:47:29;;;;;;;10.65;7.85;;;27.80;79.60;;;;;;5052778;28;20025;-73
2023/08/23 00:49:57;;;;;;;10.38;8.52;;;27.80;79.40;;;;;;5052879;28;20028;-73
2023/08/23 00:52:23;;;;;;;12.25;8.32;;;27.80;79.40;;;;;;5052905;28;20020;-73
2023/08/23 00:54:49;;;;;;;9.80;8.55;;;27.80;79.40;;;;;;5052809;28;20043;-73
2023/08/23 00:57:15;;;;;;;13.68;8.48;;;27.80;79.50;;;;;;5051387;28;20037;-73
2023/08/23 00:59:42;;;;;;;11.40;8.38;;;27.70;79.40;;;;;;5049512;28;20028;-73
2023/08/23 01:02:08;;;;;;;12.63;8.45;;;27.70;79.40;;;;;;5050044;28;20029;-72
2023/08/23 01:04:34;;;;;;;13.55;8.55;;;27.70;79.80;;;;;;5051135;28;20739;-72
2023/08/23 01:07:13;;;;;;;13.48;8.48;;;27.60;80.10;;;;;;5052378;28;20033;-73
2023/08/23 01:09:42;;;;;;;17.35;8.80;;;27.60;80.50;;;;;;5052737;28;20059;-72
2023/08/23 01:12:26;;;;;;;25.10;9.50;;;27.60;80.50;;;;;;5051115;28;20040;-72
2023/08/23 01:15:13;;;;;;;24.98;10.27;;;27.60;80.70;;;;;;5052105;28;20021;-72
2023/08/23 01:17:42;;;;;;;19.60;9.27;;;27.60;80.80;;;;;;5052096;28;20044;-73
2023/08/23 01:20:12;;;;;;;22.77;9.05;;;27.50;80.70;;;;;;5051699;28;20025;-73
2023/08/23 01:23:13;;;;;;;13.55;8.80;;;27.50;80.90;;;;;;5052356;28;20033;-73
2023/08/23 01:25:48;;;;;;;23.52;9.50;;;27.50;81.30;;;;;;5052107;28;20469;-72
2023/08/23 01:28:14;;;;;;;15.07;8.38;;;27.50;81.10;;;;;;5052114;28;20037;-73
2023/08/23 01:30:41;;;;;;;14.20;9.10;;;27.50;80.90;;;;;;5052023;28;20104;-73
2023/08/23 01:33:15;;;;;;;11.85;9.50;;;27.50;80.60;;;;;;5051957;28;20033;-73
2023/08/23 01:35:47;;;;;;;11.73;8.50;;;27.50;80.50;;;;;;5051634;28;20119;-73
2023/08/23 01:38:14;;;;;;;10.80;8.23;;;27.50;80.20;;;;;;5053341;28;20021;-73
2023/08/23 01:40:40;;;;;;;11.77;8.80;;;27.50;80.40;;;;;;5056249;28;20473;-73
2023/08/23 01:43:07;;;;;;;10.70;8.60;;;27.40;80.00;;;;;;5056240;28;20472;-73
2023/08/23 01:45:32;;;;;;;11.32;8.23;;;27.50;79.80;;;;;;5056744;28;20373;-73
2023/08/23 01:47:58;;;;;;;10.80;8.18;;;27.40;79.50;;;;;;5056288;28;20069;-73
2023/08/23 01:50:24;;;;;;;11.45;8.32;;;27.40;78.80;;;;;;5056191;28;20024;-73
2023/08/23 01:52:49;;;;;;;11.25;7.55;;;27.40;78.90;;;;;;5056088;28;20032;-73
2023/08/23 01:55:20;;;;;;;13.80;7.85;;;27.40;79.30;;;;;;5056432;28;20091;-75
2023/08/23 01:57:46;;;;;;;14.23;8.32;;;27.30;80.00;;;;;;5056623;28;20037;-73
2023/08/23 02:00:13;;;;;;;8.98;7.45;;;27.30;80.00;;;;;;5056081;28;20017;-73
2023/08/23 02:02:38;;;;;;;8.90;8.00;;;27.30;80.00;;;;;;5056204;28;20036;-73
2023/08/23 02:05:04;;;;;;;10.45;8.00;;;27.30;80.00;;;;;;5055970;28;20029;-73
2023/08/23 02:07:30;;;;;;;14.27;8.38;;;27.30;79.80;;;;;;5056193;28;20056;-73
2023/08/23 02:09:56;;;;;;;11.38;8.18;;;27.30;79.80;;;;;;5055953;28;20504;-73
2023/08/23 02:12:22;;;;;;;16.15;9.15;;;27.30;80.30;;;;;;5055809;28;20063;-73
2023/08/23 02:14:47;;;;;;;10.43;8.27;;;27.30;80.30;;;;;;5055672;28;20108;-73
2023/08/23 02:17:13;;;;;;;9.35;8.30;;;27.30;80.40;;;;;;5055598;28;20063;-73
2023/08/23 02:19:39;;;;;;;14.68;8.68;;;27.20;80.60;;;;;;5055757;28;20025;-73
2023/08/23 02:22:05;;;;;;;14.80;8.07;;;27.20;80.60;;;;;;5055567;28;20083;-74
2023/08/23 02:24:30;;;;;;;15.23;8.32;;;27.20;80.70;;;;;;5055865;28;20029;-72
2023/08/23 02:26:56;;;;;;;10.32;8.88;;;27.20;80.90;;;;;;5055700;28;20056;-73
2023/08/23 02:29:22;;;;;;;11.60;8.60;;;27.20;80.90;;;;;;5055631;28;20025;-74
2023/08/23 02:31:48;;;;;;;9.23;7.85;;;27.10;81.20;;;;;;5055595;28;20158;-73
2023/08/23 02:34:14;;;;;;;12.65;8.23;;;27.10;81.00;;;;;;5055371;28;20481;-73
2023/08/23 02:36:39;;;;;;;8.85;7.95;;;27.10;80.80;;;;;;5055370;28;20049;-73
2023/08/23 02:39:05;;;;;;;12.60;8.18;;;27.00;81.10;;;;;;5055294;28;20067;-73
2023/08/23 02:41:31;;;;;;;11.10;8.35;;;27.00;81.00;;;;;;5055216;28;20029;-73
2023/08/23 02:43:56;;;;;;;13.63;8.82;;;27.00;81.00;;;;;;5054209;28;20035;-73
2023/08/23 02:46:22;;;;;;;11.75;8.18;;;27.00;80.90;;;;;;5055141;28;20100;-73
2023/08/23 02:48:48;;;;;;;13.57;9.30;;;27.00;80.90;;;;;;5055103;28;20110;-73
2023/08/23 02:51:14;;;;;;;9.60;8.18;;;26.90;81.90;;;;;;5054170;28;20041;-73
2023/08/23 02:53:39;;;;;;;13.38;8.77;;;26.90;81.70;;;;;;5055086;28;20104;-72
2023/08/23 02:56:05;;;;;;;10.18;9.02;;;26.90;81.40;;;;;;5054991;28;20083;-73
2023/08/23 02:58:31;;;;;;;10.60;8.52;;;26.90;81.40;;;;;;5055221;28;20477;-73
2023/08/23 03:00:57;;;;;;;10.82;8.00;;;26.90;81.20;;;;;;5054843;28;20033;-73
2023/08/23 03:03:22;;;;;;;9.88;8.20;;;26.90;80.80;;;;;;5057559;28;20029;-73
2023/08/23 03:05:53;;;;;;;9.18;8.20;;;26.90;80.60;;;;;;5074616;28;20036;-72
2023/08/23 03:08:19;;;;;;;13.68;8.25;;;26.90;80.60;;;;;;5075000;28;20468;-72
2023/08/23 03:10:46;;;;;;;13.05;8.00;;;26.80;80.50;;;;;;5074912;28;20035;-73
2023/08/23 03:13:12;;;;;;;10.00;7.72;;;26.80;80.40;;;;;;5074607;28;20020;-73
2023/08/23 03:15:38;;;;;;;13.23;7.22;;;26.80;80.20;;;;;;5074487;28;20025;-73
2023/08/23 03:18:04;;;;;;;9.60;7.50;;;26.80;80.10;;;;;;5074514;28;20500;-73
2023/08/23 03:20:29;;;;;;;12.73;7.85;;;26.80;79.90;;;;;;5074432;28;20023;-73
2023/08/23 03:22:55;;;;;;;11.15;7.72;;;26.80;80.00;;;;;;5074630;28;20029;-73
2023/08/23 03:25:21;;;;;;;10.68;7.95;;;26.70;80.50;;;;;;5074643;28;20025;-74
2023/08/23 03:27:52;;;;;;;9.73;7.72;;;26.70;80.20;;;;;;5074546;28;20016;-72
2023/08/23 03:30:21;;;;;;;14.00;8.25;;;26.80;80.40;;;;;;5073179;28;20032;-73
2023/08/23 03:32:47;;;;;;;12.82;8.00;;;26.70;80.70;;;;;;5074102;28;20020;-73
2023/08/23 03:35:13;;;;;;;12.30;8.55;;;26.70;80.70;;;;;;5073720;28;20028;-73
2023/08/23 03:37:39;;;;;;;13.55;8.02;;;26.70;80.40;;;;;;5074162;28;20392;-72
2023/08/23 03:40:05;;;;;;;12.30;7.80;;;26.60;80.10;;;;;;5074361;28;20063;-73
2023/08/23 03:42:31;;;;;;;12.65;7.93;;;26.50;80.70;;;;;;5074028;28;20031;-73
2023/08/23 03:44:57;;;;;;;8.98;7.50;;;26.50;80.90;;;;;;5073995;28;20095;-73
2023/08/23 03:47:22;;;;;;;11.60;7.22;;;26.40;81.00;;;;;;5073936;28;20025;-72
2023/08/23 03:49:48;;;;;;;13.13;7.57;;;26.40;81.10;;;;;;5073738;28;20551;-72
2023/08/23 03:52:15;;;;;;;8.88;7.55;;;26.50;81.10;;;;;;5074064;28;20103;-73
2023/08/23 03:54:41;;;;;;;9.95;7.97;;;26.50;80.90;;;;;;5073705;28;20025;-71
2023/08/23 03:57:07;;;;;;;10.07;8.38;;;26.50;80.50;;;;;;5073796;28;20057;-70
2023/08/23 03:59:33;;;;;;;12.55;7.68;;;26.50;80.40;;;;;;5073837;28;20511;-70
2023/08/23 04:01:59;;;;;;;10.13;7.70;;;;;;;;;;5073205;28;20116;-78
2023/08/23 04:04:25;;;;;;;9.35;7.53;;;26.40;79.90;;;;;;5073788;28;20103;-73
2023/08/23 04:06:50;;;;;;;11.27;7.55;;;26.40;80.70;;;;;;5073718;28;20051;-72
2023/08/23 04:09:17;;;;;;;16.40;7.93;;;26.50;80.40;;;;;;5073295;28;20436;-72
2023/08/23 04:11:42;;;;;;;10.75;8.35;;;26.50;80.60;;;;;;5073246;28;20059;-74
2023/08/23 04:14:08;;;;;;;11.13;8.23;;;26.40;80.80;;;;;;5073298;28;20048;-72
2023/08/23 04:16:34;;;;;;;9.15;7.57;;;26.40;80.80;;;;;;5073037;28;20032;-74
2023/08/23 04:18:59;;;;;;;14.10;7.63;;;26.40;81.20;;;;;;5073447;28;20533;-72
2023/08/23 04:21:26;;;;;;;10.80;7.28;;;26.40;80.50;;;;;;5073490;28;20056;-73
2023/08/23 04:23:52;;;;;;;16.00;7.82;;;26.40;80.40;;;;;;5073467;28;20389;-72
2023/08/23 04:26:18;;;;;;;14.15;7.75;;;26.30;80.20;;;;;;5073381;28;20196;-72
2023/08/23 04:28:45;;;;;;;17.60;7.80;;;26.30;80.10;;;;;;5073367;28;20032;-72
2023/08/23 04:31:10;;;;;;;13.70;7.43;;;26.30;80.30;;;;;;5073306;28;20074;-73
2023/08/23 04:33:36;;;;;;;10.80;7.65;;;26.30;80.20;;;;;;5073409;28;20096;-73
2023/08/23 04:36:03;;;;;;;12.32;7.40;;;26.20;80.10;;;;;;5072811;28;20055;-71
2023/08/23 04:38:28;;;;;;;18.48;7.88;;;26.20;80.10;;;;;;5073261;28;20134;-71
2023/08/23 04:41:01;;;;;;;12.70;7.55;;;26.20;80.00;;;;;;5073390;28;20043;-73
2023/08/23 04:43:28;;;;;;;13.57;7.95;;;26.10;80.00;;;;;;5071644;28;20362;-74
2023/08/23 04:45:54;;;;;;;10.57;7.43;;;26.10;80.40;;;;;;5073565;28;20515;-72
2023/08/23 04:48:21;;;;;;;11.60;7.35;;;26.10;80.70;;;;;;5073020;28;20025;-74
2023/08/23 04:50:54;;;;;;;16.48;7.60;;;26.10;80.60;;;;;;5072611;28;20048;-72
2023/08/23 04:53:20;;;;;;;13.65;7.95;;;26.10;80.50;;;;;;5073215;28;20385;-73
2023/08/23 04:55:46;;;;;;;8.95;7.65;;;26.10;80.50;;;;;;5073108;28;20028;-74
2023/08/23 04:58:11;;;;;;;10.15;7.10;;;26.00;80.60;;;;;;5071997;28;20085;-74
2023/08/23 05:00:37;;;;;;;11.32;7.57;;;26.00;80.90;;;;;;5072821;28;20029;-73
2023/08/23 05:03:04;;;;;;;11.25;7.47;;;26.00;81.10;;;;;;5073093;28;20024;-74
2023/08/23 05:05:30;;;;;;;14.75;7.68;;;26.00;81.30;;;;;;5073295;28;20024;-73
2023/08/23 05:07:55;;;;;;;18.00;7.80;;;26.00;81.20;;;;;;5073044;28;20100;-72
2023/08/23 05:10:21;;;;;;;9.73;7.55;;;26.00;81.10;;;;;;5073099;28;20185;-72
2023/08/23 05:12:47;;;;;;;14.93;7.95;;;26.00;81.10;;;;;;5072153;28;20025;-75
2023/08/23 05:15:13;;;;;;;11.90;7.70;;;26.00;81.30;;;;;;5072558;28;20021;-74
2023/08/23 05:17:38;;;;;;;14.30;7.80;;;26.00;81.60;;;;;;5072748;28;20040;-75
2023/08/23 05:20:05;;;;;;;10.80;7.40;;;26.00;81.60;;;;;;5072836;28;20020;-74
2023/08/23 05:22:31;;;;;;;15.35;7.40;;;26.10;81.70;;;;;;5072887;28;20031;-74
2023/08/23 05:24:56;;;;;;;9.60;7.68;;;26.10;81.40;;;;;;5072659;28;20013;-75
2023/08/23 05:27:22;;;;;;;13.80;8.15;;;26.10;81.30;;;;;;5072480;28;20025;-74
2023/08/23 05:29:49;;;;;;;11.40;7.50;;;26.10;81.40;;;;;;5070805;28;20432;-73
2023/08/23 05:32:15;;;;;;;10.00;7.40;;;26.10;81.50;;;;;;5069714;28;20056;-73
2023/08/23 05:34:41;;;;;;;9.23;7.40;;;26.20;81.80;;;;;;5070982;28;20060;-74
2023/08/23 05:37:07;;;;;;;17.10;7.55;;;26.20;81.80;;;;;;5067254;28;20057;-73
2023/08/23 05:39:33;;;;;;;13.15;7.70;;;26.20;81.80;;;;;;5070947;28;20416;-75
2023/08/23 05:41:58;;;;;;;18.30;7.70;;;26.20;81.90;;;;;;5070691;28;20085;-73
2023/08/23 05:44:24;;;;;;;14.15;7.10;;;26.20;81.80;;;;;;5071874;28;20021;-75
2023/08/23 05:46:50;;;;;;;14.48;7.82;;;26.20;81.70;;;;;;5069066;28;20032;-75
2023/08/23 05:49:16;;;;;;;13.48;7.32;;;26.30;81.50;;;;;;5072301;28;20103;-75
2023/08/23 05:51:42;;;;;;;10.55;6.60;;;26.40;81.40;;;;;;5072268;28;20020;-73
2023/08/23 05:54:08;;;;;;;9.00;7.03;;;26.40;81.70;;;;;;5071254;28;20021;-73
2023/08/23 05:56:34;;;;;;;12.60;7.22;;;26.40;81.50;;;;;;5072482;28;20044;-75
2023/08/23 05:58:59;;;;;;;10.73;7.20;;;26.40;81.20;;;;;;5072481;28;20400;-73
2023/08/23 06:01:25;;;;;;;14.50;6.72;;;26.50;80.90;;;;;;5072717;28;20031;-73
2023/08/23 06:03:51;;;;;;;11.68;6.45;;;26.60;80.80;;;;;;5072581;28;20159;-74
2023/08/23 06:06:17;;;;;;;12.85;6.47;;;26.60;80.60;;;;;;5072286;28;20044;-73
2023/08/23 06:08:42;;;;;;;7.72;6.68;;;26.60;80.50;;;;;;5072323;28;20024;-73
2023/08/23 06:11:08;;;;;;;10.20;6.80;;;26.70;80.60;;;;;;5071899;28;20479;-73
2023/08/23 06:13:34;;;;;;;7.78;6.93;;;26.70;80.30;;;;;;5072258;28;20025;-73
2023/08/23 06:15:59;;;;;;;13.95;7.95;;;26.80;80.30;;;;;;5072227;28;20033;-73
2023/08/23 06:18:25;;;;;;;14.15;7.03;;;26.80;80.40;;;;;;5072195;28;20032;-73
2023/08/23 06:20:51;;;;;;;8.05;5.80;;;26.90;80.40;;;;;;5072230;28;20033;-74
2023/08/23 06:23:17;;;;;;;11.45;6.20;;;26.90;79.90;;;;;;5070886;28;20040;-73
2023/08/23 06:25:43;;;;;;;13.13;6.13;;;27.00;79.90;;;;;;5073785;28;20095;-73
2023/08/23 06:28:08;;;;;;;10.30;6.50;;;27.00;79.80;;;;;;5075911;28;20103;-74
2023/08/23 06:30:38;;;;;;;7.43;6.13;;;27.10;80.30;;;;;;5076021;28;20024;-78
2023/08/23 06:33:05;;;;;;;14.95;7.05;;;27.10;79.70;;;;;;5075409;28;20530;-78
2023/08/23 06:35:31;;;;;;;15.30;6.88;;;27.20;79.90;;;;;;5074010;28;20032;-77
2023/08/23 06:37:57;;;;;;;13.05;6.90;;;27.20;80.00;;;;;;5075724;28;20024;-76
2023/08/23 06:40:24;;;;;;;9.10;7.10;;;27.30;80.10;;;;;;5075429;28;20476;-80
2023/08/23 06:42:50;;;;;;;13.60;7.05;;;27.30;79.80;;;;;;5075307;28;20078;-79
2023/08/23 06:45:15;;;;;;;14.23;7.03;;;27.40;80.10;;;;;;5075362;28;20024;-84
2023/08/23 06:47:41;;;;;;;16.05;7.10;;;27.50;80.10;;;;;;5075519;28;20029;-85
2023/08/23 06:50:07;;;;;;;12.80;7.65;;;27.60;80.10;;;;;;5075351;28;20025;-83
2023/08/23 06:52:33;;;;;;;11.02;7.18;;;27.60;79.80;;;;;;5075394;28;20481;-82
2023/08/23 06:54:59;;;;;;;11.07;7.05;;;27.60;79.90;;;;;;5075162;28;20066;-82
2023/08/23 06:57:28;;;;;;;10.88;6.95;;;27.70;79.90;;;;;;5075155;28;20110;-82
2023/08/23 06:59:58;;;;;;;11.63;7.35;;;27.70;79.50;;;;;;5075285;28;20020;-81
2023/08/23 07:02:25;;;;;;;9.23;7.13;;;27.70;79.30;;;;;;5075039;28;20576;-83
2023/08/23 07:04:52;;;;;;;11.95;6.68;;;27.80;79.50;;;;;;5074935;28;20021;-84
2023/08/23 07:07:19;;;;;;;8.23;6.63;;;27.80;79.60;;;;;;5074975;28;20025;-83
2023/08/23 07:09:45;;;;;;;16.02;7.05;;;27.80;79.60;;;;;;5075115;28;20020;-81
2023/08/23 07:12:11;;;;;;;11.50;7.57;;;27.90;79.60;;;;;;5073854;28;20078;-81
2023/08/23 07:14:36;;;;;;;18.88;7.30;;;27.90;79.30;;;;;;5074767;28;20013;-82
2023/08/23 07:17:02;;;;;;;16.92;6.50;;;27.90;79.30;;;;;;5074604;28;20041;-84
2023/08/23 07:19:28;;;;;;;14.57;5.97;;;28.00;78.70;;;;;;5074663;28;20066;-87
2023/08/23 07:21:53;;;;;;;10.90;5.60;;;28.00;78.10;;;;;;5074785;28;20028;-87
2023/08/23 07:24:19;;;;;;;9.25;6.50;;;28.00;77.30;;;;;;5074963;28;20095;-86
2023/08/23 07:26:45;;;;;;;15.02;6.28;;;28.10;77.10;;;;;;5074707;28;20024;-86
2023/08/23 07:29:15;;;;;;;8.65;5.30;;;28.10;77.10;;;;;;5074631;28;20626;-88
2023/08/23 07:31:42;;;;;;;6.00;5.38;;;28.20;76.70;;;;;;5074788;28;20028;-86
2023/08/23 07:34:08;;;;;;;8.77;6.07;;;28.20;76.00;;;;;;5073006;28;20029;-86
2023/08/23 07:36:33;;;;;;;13.63;5.32;;;28.20;75.40;;;;;;5074118;28;20074;-84
2023/08/23 07:38:59;;;;;;;6.00;5.40;;;28.30;75.00;;;;;;5074654;28;20031;-84
2023/08/23 07:41:25;;;;;;;7.70;5.07;;;28.30;74.60;;;;;;5074411;28;20032;-87
2023/08/23 07:43:50;;;;;;;8.25;5.45;;;28.40;73.80;;;;;;5074521;28;20392;-81
2023/08/23 07:46:16;;;;;;;8.70;4.78;;;28.40;72.80;;;;;;5074717;28;20105;-84
2023/08/23 07:48:42;;;;;;;10.73;5.07;;;28.40;72.10;;;;;;5074299;28;20075;-85
2023/08/23 07:51:08;;;;;;;10.98;5.30;;;28.50;71.70;;;;;;5072980;28;20024;-83
2023/08/23 07:53:34;;;;;;;9.43;5.03;;;28.50;72.20;;;;;;5074313;28;20047;-81
2023/08/23 07:55:59;;;;;;;7.32;4.90;;;28.50;72.00;;;;;;5074064;28;20396;-85
2023/08/23 07:58:25;;;;;;;6.30;4.90;;;28.60;71.50;;;;;;5074116;28;20025;-84
2023/08/23 08:00:51;;;;;;;6.65;4.80;;;28.70;72.00;;;;;;5074571;28;20020;-86
2023/08/23 08:03:17;;;;;;;8.43;5.00;;;28.70;72.50;;;;;;5074647;28;20036;-86
2023/08/23 08:05:43;;;;;;;5.40;4.85;;;28.80;72.30;;;;;;5072815;28;20383;-86
2023/08/23 08:08:08;;;;;;;5.97;4.43;;;28.80;71.40;;;;;;5073956;28;20021;-85
2023/08/23 08:10:34;;;;;;;9.02;5.20;;;28.90;70.50;;;;;;5073708;28;20488;-84
2023/08/23 08:13:00;;;;;;;7.13;4.82;;;28.90;70.30;;;;;;5072662;28;20097;-84
2023/08/23 08:15:27;;;;;;;9.80;4.55;;;29.00;70.30;;;;;;5073771;28;20067;-81
2023/08/23 08:17:53;;;;;;;5.55;4.43;;;29.00;69.80;;;;;;5073575;28;20064;-84
2023/08/23 08:20:23;;;;;;;7.10;5.10;;;29.10;69.20;;;;;;5073703;28;20021;-85
2023/08/23 08:22:49;;;;;;;8.23;4.85;;;29.10;68.90;;;;;;5073526;28;21012;-83
2023/08/23 08:25:15;;;;;;;6.18;4.80;;;29.10;69.40;;;;;;5071950;28;20034;-83
2023/08/23 08:27:40;;;;;;;10.63;5.03;;;29.20;70.00;;;;;;5071769;28;20048;-82
2023/08/23 08:30:07;;;;;;;11.30;5.18;;;29.30;70.00;;;;;;5071624;28;20024;-85
2023/08/23 08:32:33;;;;;;;10.15;5.28;;;29.40;70.00;;;;;;5071818;28;20077;-84
2023/08/23 08:34:59;;;;;;;5.75;4.60;;;29.40;68.70;;;;;;5072478;28;20036;-80
2023/08/23 08:37:25;;;;;;;8.57;4.95;;;29.40;68.30;;;;;;5072559;28;20056;-83
2023/08/23 08:39:51;;;;;;;14.02;5.00;;;29.50;68.50;;;;;;5072944;28;20067;-85
2023/08/23 08:42:17;;;;;;;8.52;5.30;;;29.50;69.20;;;;;;5073299;28;20070;-86
2023/08/23 08:44:44;;;;;;;8.02;5.10;;;29.60;69.20;;;;;;5073300;28;20031;-86
2023/08/23 08:47:10;;;;;;;7.38;4.72;;;29.60;68.70;;;;;;5071338;28;20479;-82
2023/08/23 08:49:36;;;;;;;8.57;5.05;;;29.60;68.00;;;;;;5070124;28;20103;-83
2023/08/23 08:52:07;;;;;;;5.32;4.60;;;29.70;67.80;;;;;;5071471;28;20443;-82
2023/08/23 08:54:34;;;;;;;7.72;4.60;;;29.80;66.00;;;;;;5071776;28;20069;-85
2023/08/23 08:57:01;;;;;;;9.65;5.03;;;29.80;65.90;;;;;;5072211;28;20048;-84
2023/08/23 08:59:27;;;;;;;7.38;4.50;;;29.90;66.50;;;;;;5072639;28;20028;-86
2023/08/23 09:01:56;;;;;;;13.43;5.18;;;30.00;66.60;;;;;;5072912;28;20476;-86
2023/08/23 09:04:21;;;;;;;7.40;4.93;;;30.00;67.30;;;;;;5073360;28;20012;-87
2023/08/23 09:06:47;;;;;;;10.13;4.53;;;30.10;66.50;;;;;;5073162;28;20033;-85
2023/08/23 09:09:15;;;;;;;8.38;4.60;;;30.10;65.70;;;;;;5072933;28;20044;-83
2023/08/23 09:11:41;;;;;;;11.07;4.95;;;30.20;66.40;;;;;;5073125;28;20066;-85
2023/08/23 09:14:17;;;;;;;7.78;4.45;;;30.30;65.80;;;;;;5073175;28;20021;-86
2023/08/23 09:16:44;;;;;;;11.45;5.53;;;30.30;64.10;;;;;;5072115;28;20468;-86
2023/08/23 09:19:13;;;;;;;6.43;4.75;;;30.30;63.30;;;;;;5071600;28;20016;-84
2023/08/23 09:21:47;;;;;;;6.57;4.72;;;30.30;63.40;;;;;;5072833;28;20029;-86
2023/08/23 09:24:13;;;;;;;8.40;4.63;;;30.30;63.40;;;;;;5071613;28;20429;-86
2023/08/23 09:26:39;;;;;;;9.35;4.68;;;30.40;63.40;;;;;;5071264;28;20020;-83
2023/08/23 09:29:05;;;;;;;5.68;4.30;;;30.50;63.60;;;;;;5072799;28;20056;-85
2023/08/23 09:31:31;;;;;;;7.65;5.00;;;30.60;64.20;;;;;;5072867;28;20058;-86
2023/08/23 09:33:59;;;;;;;11.88;5.07;;;30.60;63.90;;;;;;5072678;28;20485;-86
2023/08/23 09:36:27;;;;;;;7.43;5.00;;;30.70;64.80;;;;;;5071440;28;20044;-85
2023/08/23 09:38:53;;;;;;;6.57;5.00;;;30.70;64.20;;;;;;5072931;28;20051;-83
2023/08/23 09:41:20;;;;;;;6.80;5.30;;;30.80;63.90;;;;;;5072736;28;20032;-85
2023/08/23 09:43:51;;;;;;;8.43;4.82;;;30.90;62.90;;;;;;5072710;28;20063;-86
2023/08/23 09:46:17;;;;;;;5.93;4.57;;;30.90;63.30;;;;;;5072445;28;20039;-86
2023/08/23 09:48:43;;;;;;;8.20;5.10;;;31.00;63.50;;;;;;5071260;28;20028;-84
2023/08/23 09:51:10;;;;;;;11.77;5.68;;;31.10;62.90;;;;;;5072651;28;20024;-82
2023/08/23 09:53:39;;;;;;;10.63;5.72;;;31.20;63.40;;;;;;5072701;28;20384;-84
2023/08/23 09:56:06;;;;;;;11.18;5.43;;;31.20;63.50;;;;;;5072602;28;20491;-84
2023/08/23 09:58:32;;;;;;;13.20;5.63;;;31.30;63.40;;;;;;5072640;28;20021;-83
2023/08/23 10:00:58;;;;;;;14.13;5.40;;;31.30;63.90;;;;;;5076118;28;20028;-85
2023/08/23 10:03:25;;;;;;;10.10;5.47;;;31.40;63.80;;;;;;5075145;28;20028;-83
2023/08/23 10:05:51;;;;;;;8.25;4.30;;;31.40;60.70;;;;;;5076503;28;20034;-82
2023/08/23 10:08:18;;;;;;;7.40;4.55;;;31.50;57.80;;;;;;5076313;28;20511;-84
2023/08/23 10:10:45;;;;;;;9.70;5.45;;;31.60;59.30;;;;;;5076202;28;20508;-84
2023/08/23 10:13:11;;;;;;;8.57;5.22;;;31.60;58.80;;;;;;5076098;28;20481;-82
2023/08/23 10:15:40;;;;;;;11.52;5.75;;;31.70;59.50;;;;;;5076019;28;20052;-84
2023/08/23 10:18:12;;;;;;;5.70;4.78;;;31.70;59.10;;;;;;5076242;28;20055;-84
2023/08/23 10:20:38;;;;;;;12.90;4.93;;;31.80;59.80;;;;;;5076011;28;20021;-83
2023/08/23 10:23:15;;;;;;;5.68;5.00;;;31.90;58.60;;;;;;5076056;28;20055;-83
2023/08/23 10:25:43;;;;;;;8.20;5.18;;;31.90;57.80;;;;;;5076192;28;20476;-83
2023/08/23 10:28:11;;;;;;;5.43;4.70;;;32.00;58.10;;;;;;5075893;28;20492;-82
2023/08/23 10:30:41;;;;;;;7.78;5.07;;;32.00;57.80;;;;;;5075977;28;20097;-83
2023/08/23 10:33:08;;;;;;;6.15;5.10;;;32.10;57.60;;;;;;5074268;28;20116;-79
2023/08/23 10:35:35;;;;;;;9.02;5.68;;;32.10;58.70;;;;;;5074901;28;20170;-80
2023/08/23 10:38:04;;;;;;;9.88;5.40;;;32.20;58.70;;;;;;5074902;28;20115;-79
2023/08/23 10:40:32;;;;;;;6.93;5.10;;;32.20;58.60;;;;;;5074916;28;20036;-78
2023/08/23 10:43:01;;;;;;;8.75;5.28;;;32.30;58.30;;;;;;5074840;28;20032;-80
2023/08/23 10:45:27;;;;;;;7.15;5.25;;;32.30;57.20;;;;;;5073750;28;20515;-79
2023/08/23 10:47:54;;;;;;;14.02;5.38;;;32.30;57.30;;;;;;5075066;28;20025;-80
2023/08/23 10:50:20;;;;;;;10.00;4.97;;;32.40;58.10;;;;;;5075154;28;20350;-77
2023/08/23 10:52:50;;;;;;;7.63;4.95;;;32.40;57.90;;;;;;5075190;28;20025;-81
2023/08/23 10:55:16;;;;;;;10.68;5.32;;;32.50;56.80;;;;;;5074994;28;20056;-83
2023/08/23 10:57:41;;;;;;;11.95;5.50;;;32.50;56.90;;;;;;5074158;28;20060;-80
2023/08/23 11:00:08;;;;;;;8.10;4.88;;;32.50;57.20;;;;;;5074722;28;20028;-78
2023/08/23 11:02:34;;;;;;;8.52;5.00;;;32.60;56.90;;;;;;5074369;28;20423;-78
2023/08/23 11:04:59;;;;;;;11.20;4.68;;;32.60;57.00;;;;;;5075085;28;20024;-83
2023/08/23 11:07:26;;;;;;;7.97;4.40;;;32.70;57.80;;;;;;5075452;28;20043;-81
2023/08/23 11:09:52;;;;;;;9.30;4.10;;;32.80;56.80;;;;;;5074074;28;20032;-82
2023/08/23 11:12:18;;;;;;;13.90;4.75;;;32.90;56.10;;;;;;5074200;28;20013;-79
2023/08/23 11:14:44;;;;;;;8.95;4.30;;;32.90;56.10;;;;;;5074232;28;20036;-81
2023/08/23 11:17:11;;;;;;;9.30;5.28;;;33.00;56.10;;;;;;5074062;28;20060;-79
2023/08/23 11:19:38;;;;;;;8.00;4.65;;;33.00;56.60;;;;;;5074403;28;20028;-80
2023/08/23 11:22:06;;;;;;;8.15;4.63;;;33.00;56.60;;;;;;5074220;28;20046;-84
2023/08/23 11:24:32;;;;;;;7.35;4.40;;;33.10;57.10;;;;;;5074474;28;20385;-78
2023/08/23 11:26:58;;;;;;;9.82;4.93;;;33.10;57.50;;;;;;5074296;28;20025;-75
2023/08/23 11:29:24;;;;;;;8.68;4.85;;;33.10;58.70;;;;;;5075279;28;20047;-77
2023/08/23 11:32:01;;;;;;;7.70;5.10;;;33.10;58.70;;;;;;5074874;28;20024;-82
2023/08/23 11:34:27;;;;;;;6.40;4.90;;;33.20;58.90;;;;;;5073748;28;20025;-78
2023/08/23 11:36:53;;;;;;;8.35;4.93;;;33.20;59.30;;;;;;5073513;28;20055;-77
2023/08/23 11:39:18;;;;;;;12.82;5.03;;;33.30;58.70;;;;;;5074298;28;20033;-80
2023/08/23 11:41:45;;;;;;;8.27;4.70;;;33.30;57.70;;;;;;5074009;28;20468;-78
2023/08/23 11:44:13;;;;;;;5.30;4.53;;;33.30;57.80;;;;;;5073718;28;20056;-79
2023/08/23 11:46:38;;;;;;;9.65;4.88;;;33.40;57.90;;;;;;5073305;28;20036;-80
2023/08/23 11:49:09;;;;;;;8.02;5.40;;;33.40;57.50;;;;;;5073799;28;20097;-77
2023/08/23 11:51:49;;;;;;;9.75;4.63;;;33.40;57.10;;;;;;5073854;28;20024;-80
2023/08/23 11:54:16;;;;;;;13.13;4.70;;;33.40;57.00;;;;;;5073890;28;20116;-82
2023/08/23 11:56:43;;;;;;;11.30;4.85;;;33.50;56.90;;;;;;5072654;28;20438;-79
2023/08/23 11:59:13;;;;;;;10.55;4.70;;;33.50;57.20;;;;;;5074272;28;20031;-77
2023/08/23 12:01:40;;;;;;;7.00;4.63;;;33.50;56.30;;;;;;5074016;28;20024;-82
2023/08/23 12:04:07;;;;;;;12.45;4.53;;;33.60;56.00;;;;;;5073067;28;20027;-78
2023/08/23 12:06:33;;;;;;;5.80;4.45;;;33.60;56.10;;;;;;5072346;28;20107;-78
2023/08/23 12:08:59;;;;;;;5.47;4.57;;;33.60;56.70;;;;;;5073337;28;20024;-78
2023/08/23 12:11:25;;;;;;;5.55;4.57;;;33.70;56.40;;;;;;5073516;28;20028;-81
2023/08/23 12:13:51;;;;;;;8.65;4.35;;;33.70;55.80;;;;;;5073054;28;20025;-78
2023/08/23 12:16:17;;;;;;;7.00;3.92;;;33.70;55.60;;;;;;5073520;28;20043;-82
2023/08/23 12:18:46;;;;;;;9.00;4.07;;;33.70;54.00;;;;;;5073728;28;20020;-78
2023/08/23 12:21:12;;;;;;;6.10;4.38;;;33.80;54.50;;;;;;5073323;28;20083;-78
2023/08/23 12:23:37;;;;;;;7.20;3.97;;;33.80;54.60;;;;;;5071219;28;20024;-80
2023/08/23 12:26:03;;;;;;;8.52;4.20;;;33.80;53.80;;;;;;5073484;28;20488;-84
2023/08/23 12:28:29;;;;;;;7.53;4.30;;;33.90;53.70;;;;;;5072918;28;20078;-82
2023/08/23 12:30:55;;;;;;;8.00;3.92;;;33.80;53.40;;;;;;5073310;28;20016;-82
2023/08/23 12:33:21;;;;;;;14.82;4.88;;;33.90;53.70;;;;;;5073422;28;20031;-77
2023/08/23 12:35:47;;;;;;;5.35;3.88;;;33.90;53.90;;;;;;5072990;28;20067;-79
2023/08/23 12:38:12;;;;;;;12.27;4.25;;;33.90;53.50;;;;;;5073238;28;20028;-79